sensor_id;sensor_type;location;lat;lon;timestamp;pressure;altitude;pressure_sealevel;temperature;humidity
11676;BME280;5894;42.768;23.404;2022-10-24T00:01:13;96387.66;;;12.17;100.00
11676;BME280;5894;42.768;23.404;2022-10-24T00:03:40;96393.34;;;12.10;100.00
11676;BME280;5894;42.768;23.404;2022-10-24T00:06:08;96396.25;;;12.09;100.00
11676;BME280;5894;42.768;23.404;2022-10-24T00:08:36;96387.81;;;12.07;100.00
11676;BME280;5894;42.768;23.404;2022-10-24T00:11:07;96380.97;;;12.06;100.00
11676;BME280;5894;42.768;23.404;2022-10-24T00:13:36;96383.44;;;12.02;100.00
11676;BME280;5894;42.768;23.404;2022-10-24T00:16:03;96383.78;;;11.96;100.00
11676;BME280;5894;42.768;23.404;2022-10-24T00:18:30;96387.03;;;11.93;100.00
11676;BME280;5894;42.768;23.404;2022-10-24T00:20:57;96386.53;;;11.91;100.00
11676;BME280;5894;42.768;23.404;2022-10-24T00:23:24;96381.81;;;11.88;100.00
11676;BME280;5894;42.768;23.404;2022-10-24T00:25:51;96361.91;;;11.76;100.00
11676;BME280;5894;42.768;23.404;2022-10-24T00:28:18;96374.09;;;11.91;100.00
11676;BME280;5894;42.768;23.404;2022-10-24T00:30:49;96373.97;;;11.83;100.00
11676;BME280;5894;42.768;23.404;2022-10-24T00:33:16;96375.75;;;11.68;100.00
11676;BME280;5894;42.768;23.404;2022-10-24T00:35:43;96372.19;;;11.59;100.00
11676;BME280;5894;42.768;23.404;2022-10-24T00:38:10;96365.41;;;11.53;100.00
11676;BME280;5894;42.768;23.404;2022-10-24T00:40:37;96368.03;;;11.53;100.00
11676;BME280;5894;42.768;23.404;2022-10-24T00:43:03;96367.75;;;11.55;100.00
11676;BME280;5894;42.768;23.404;2022-10-24T00:45:38;96373.41;;;11.48;100.00
11676;BME280;5894;42.768;23.404;2022-10-24T00:48:14;96366.19;;;11.54;100.00
11676;BME280;5894;42.768;23.404;2022-10-24T00:50:42;96374.75;;;11.46;100.00
11676;BME280;5894;42.768;23.404;2022-10-24T00:53:10;96368.50;;;11.42;100.00
11676;BME280;5894;42.768;23.404;2022-10-24T00:55:37;96296.06;;;10.91;100.00
11676;BME280;5894;42.768;23.404;2022-10-24T00:58:05;96390.97;;;11.39;100.00
11676;BME280;5894;42.768;23.404;2022-10-24T01:00:34;96372.75;;;11.37;100.00
11676;BME280;5894;42.768;23.404;2022-10-24T01:03:02;96378.34;;;11.36;100.00
11676;BME280;5894;42.768;23.404;2022-10-24T01:05:35;96373.28;;;11.39;100.00
11676;BME280;5894;42.768;23.404;2022-10-24T01:08:08;96365.34;;;11.39;100.00
11676;BME280;5894;42.768;23.404;2022-10-24T01:10:42;96375.41;;;11.37;100.00
11676;BME280;5894;42.768;23.404;2022-10-24T01:13:20;96327.53;;;11.07;100.00
11676;BME280;5894;42.768;23.404;2022-10-24T01:15:57;96365.13;;;11.36;100.00
11676;BME280;5894;42.768;23.404;2022-10-24T01:18:29;96377.69;;;11.44;100.00
11676;BME280;5894;42.768;23.404;2022-10-24T01:21:08;96370.81;;;11.43;100.00
11676;BME280;5894;42.768;23.404;2022-10-24T01:30:04;96366.69;;;11.37;100.00
11676;BME280;5894;42.768;23.404;2022-10-24T01:32:40;96353.91;;;11.25;100.00
11676;BME280;5894;42.768;23.404;2022-10-24T01:35:18;96363.97;;;11.23;100.00
11676;BME280;5894;42.768;23.404;2022-10-24T01:37:52;96370.63;;;11.21;100.00
11676;BME280;5894;42.768;23.404;2022-10-24T01:40:23;96363.97;;;11.23;100.00
11676;BME280;5894;42.768;23.404;2022-10-24T01:42:57;96360.03;;;11.02;100.00
11676;BME280;5894;42.768;23.404;2022-10-24T01:45:30;96364.41;;;11.12;100.00
11676;BME280;5894;42.768;23.404;2022-10-24T01:48:01;96368.97;;;11.06;100.00
11676;BME280;5894;42.768;23.404;2022-10-24T01:50:32;96375.31;;;11.05;100.00
11676;BME280;5894;42.768;23.404;2022-10-24T01:53:01;96376.94;;;11.01;100.00
11676;BME280;5894;42.768;23.404;2022-10-24T01:55:29;96373.25;;;11.02;100.00
11676;BME280;5894;42.768;23.404;2022-10-24T01:57:56;96374.25;;;11.06;100.00
11676;BME280;5894;42.768;23.404;2022-10-24T02:00:24;96353.91;;;10.88;100.00
11676;BME280;5894;42.768;23.404;2022-10-24T02:02:55;96368.19;;;11.06;100.00
11676;BME280;5894;42.768;23.404;2022-10-24T02:05:26;96369.34;;;10.99;100.00
11676;BME280;5894;42.768;23.404;2022-10-24T02:07:56;96335.91;;;10.71;100.00
11676;BME280;5894;42.768;23.404;2022-10-24T02:10:30;96372.81;;;10.95;100.00
11676;BME280;5894;42.768;23.404;2022-10-24T02:13:00;96354.97;;;10.87;100.00
11676;BME280;5894;42.768;23.404;2022-10-24T02:15:31;96370.97;;;10.95;100.00
11676;BME280;5894;42.768;23.404;2022-10-24T02:18:01;96382.56;;;10.94;100.00
11676;BME280;5894;42.768;23.404;2022-10-24T02:20:33;96380.03;;;10.89;100.00
11676;BME280;5894;42.768;23.404;2022-10-24T02:23:04;96374.88;;;10.98;100.00
11676;BME280;5894;42.768;23.404;2022-10-24T02:25:36;96375.03;;;10.88;100.00
11676;BME280;5894;42.768;23.404;2022-10-24T02:28:09;96373.38;;;10.92;100.00
11676;BME280;5894;42.768;23.404;2022-10-24T02:30:40;96380.34;;;10.83;100.00
11676;BME280;5894;42.768;23.404;2022-10-24T02:33:11;96377.78;;;10.78;100.00
11676;BME280;5894;42.768;23.404;2022-10-24T02:35:39;96373.34;;;10.73;100.00
11676;BME280;5894;42.768;23.404;2022-10-24T02:38:11;96353.69;;;10.60;100.00
11676;BME280;5894;42.768;23.404;2022-10-24T02:40:40;96357.34;;;10.64;100.00
11676;BME280;5894;42.768;23.404;2022-10-24T02:43:09;96357.19;;;10.56;100.00
11676;BME280;5894;42.768;23.404;2022-10-24T02:45:38;96364.72;;;10.68;100.00
11676;BME280;5894;42.768;23.404;2022-10-24T02:48:09;96371.75;;;10.72;100.00
11676;BME280;5894;42.768;23.404;2022-10-24T02:50:39;96339.84;;;10.50;100.00
11676;BME280;5894;42.768;23.404;2022-10-24T02:53:07;96374.91;;;10.74;100.00
11676;BME280;5894;42.768;23.404;2022-10-24T02:55:35;96374.13;;;10.74;100.00
11676;BME280;5894;42.768;23.404;2022-10-24T02:58:02;96369.97;;;10.68;100.00
11676;BME280;5894;42.768;23.404;2022-10-24T03:00:29;96373.41;;;10.68;100.00
11676;BME280;5894;42.768;23.404;2022-10-24T03:02:56;96373.88;;;10.70;100.00
11676;BME280;5894;42.768;23.404;2022-10-24T03:05:23;96364.47;;;10.64;100.00
11676;BME280;5894;42.768;23.404;2022-10-24T03:07:51;96334.13;;;10.43;100.00
11676;BME280;5894;42.768;23.404;2022-10-24T03:10:18;96361.56;;;10.65;100.00
11676;BME280;5894;42.768;23.404;2022-10-24T03:12:45;96360.25;;;10.63;100.00
11676;BME280;5894;42.768;23.404;2022-10-24T03:15:12;96363.34;;;10.70;100.00
11676;BME280;5894;42.768;23.404;2022-10-24T03:17:38;96355.66;;;10.74;100.00
11676;BME280;5894;42.768;23.404;2022-10-24T03:20:06;96360.41;;;10.72;100.00
11676;BME280;5894;42.768;23.404;2022-10-24T03:22:33;96355.50;;;10.65;100.00
11676;BME280;5894;42.768;23.404;2022-10-24T03:25:01;96358.69;;;10.62;100.00
11676;BME280;5894;42.768;23.404;2022-10-24T03:27:29;96352.06;;;10.41;100.00
11676;BME280;5894;42.768;23.404;2022-10-24T03:29:56;96363.47;;;10.60;100.00
11676;BME280;5894;42.768;23.404;2022-10-24T03:32:22;96355.34;;;10.56;100.00
11676;BME280;5894;42.768;23.404;2022-10-24T03:34:49;96348.81;;;10.49;100.00
11676;BME280;5894;42.768;23.404;2022-10-24T03:37:16;96361.25;;;10.48;100.00
11676;BME280;5894;42.768;23.404;2022-10-24T03:39:43;96364.09;;;10.52;100.00
11676;BME280;5894;42.768;23.404;2022-10-24T03:42:11;96337.94;;;10.32;100.00
11676;BME280;5894;42.768;23.404;2022-10-24T03:44:38;96359.09;;;10.50;100.00
11676;BME280;5894;42.768;23.404;2022-10-24T03:47:05;96362.31;;;10.47;100.00
11676;BME280;5894;42.768;23.404;2022-10-24T03:49:32;96359.44;;;10.44;100.00
11676;BME280;5894;42.768;23.404;2022-10-24T03:51:59;96365.50;;;10.44;100.00
11676;BME280;5894;42.768;23.404;2022-10-24T03:54:26;96365.50;;;10.44;100.00
11676;BME280;5894;42.768;23.404;2022-10-24T03:56:52;96358.38;;;10.45;100.00
11676;BME280;5894;42.768;23.404;2022-10-24T03:59:21;96358.66;;;10.43;100.00
11676;BME280;5894;42.768;23.404;2022-10-24T04:01:48;96362.84;;;10.44;100.00
11676;BME280;5894;42.768;23.404;2022-10-24T04:04:15;96338.38;;;10.39;100.00
11676;BME280;5894;42.768;23.404;2022-10-24T04:06:41;96359.66;;;10.47;100.00
11676;BME280;5894;42.768;23.404;2022-10-24T04:09:10;96362.06;;;10.44;100.00
11676;BME280;5894;42.768;23.404;2022-10-24T04:11:36;96365.50;;;10.44;100.00
11676;BME280;5894;42.768;23.404;2022-10-24T04:14:03;96356.00;;;10.43;100.00
11676;BME280;5894;42.768;23.404;2022-10-24T04:16:31;96354.50;;;10.37;100.00
11676;BME280;5894;42.768;23.404;2022-10-24T04:18:59;96359.03;;;10.32;100.00
11676;BME280;5894;42.768;23.404;2022-10-24T04:21:26;96358.03;;;10.27;100.00
11676;BME280;5894;42.768;23.404;2022-10-24T04:23:53;96352.25;;;10.25;100.00
11676;BME280;5894;42.768;23.404;2022-10-24T04:26:20;96356.72;;;10.25;100.00
11676;BME280;5894;42.768;23.404;2022-10-24T04:28:46;96350.16;;;10.22;100.00
11676;BME280;5894;42.768;23.404;2022-10-24T04:31:14;96348.81;;;10.25;100.00
11676;BME280;5894;42.768;23.404;2022-10-24T04:33:42;96339.41;;;10.14;100.00
11676;BME280;5894;42.768;23.404;2022-10-24T04:36:09;96358.84;;;10.23;100.00
11676;BME280;5894;42.768;23.404;2022-10-24T04:38:36;96365.44;;;10.25;100.00
11676;BME280;5894;42.768;23.404;2022-10-24T04:41:03;96372.56;;;10.25;100.00
11676;BME280;5894;42.768;23.404;2022-10-24T04:43:30;96359.16;;;10.16;100.00
11676;BME280;5894;42.768;23.404;2022-10-24T04:45:57;96372.75;;;10.28;100.00
11676;BME280;5894;42.768;23.404;2022-10-24T04:48:24;96381.97;;;10.31;100.00
11676;BME280;5894;42.768;23.404;2022-10-24T04:50:52;96381.44;;;10.29;100.00
11676;BME280;5894;42.768;23.404;2022-10-24T04:53:19;96373.78;;;10.33;100.00
11676;BME280;5894;42.768;23.404;2022-10-24T04:55:45;96379.34;;;10.31;100.00
11676;BME280;5894;42.768;23.404;2022-10-24T04:58:12;96356.91;;;10.05;100.00
11676;BME280;5894;42.768;23.404;2022-10-24T05:00:39;96377.75;;;10.30;100.00
11676;BME280;5894;42.768;23.404;2022-10-24T05:03:10;96382.75;;;10.32;100.00
11676;BME280;5894;42.768;23.404;2022-10-24T05:05:37;96391.19;;;10.34;100.00
11676;BME280;5894;42.768;23.404;2022-10-24T05:08:06;96377.25;;;10.28;100.00
11676;BME280;5894;42.768;23.404;2022-10-24T05:10:32;96377.53;;;10.26;100.00
11676;BME280;5894;42.768;23.404;2022-10-24T05:12:59;96372.84;;;10.18;100.00
11676;BME280;5894;42.768;23.404;2022-10-24T05:15:26;96393.91;;;10.23;100.00
11676;BME280;5894;42.768;23.404;2022-10-24T05:17:54;96385.53;;;10.16;100.00
11676;BME280;5894;42.768;23.404;2022-10-24T05:20:21;96379.72;;;10.19;100.00
11676;BME280;5894;42.768;23.404;2022-10-24T05:22:47;96378.66;;;10.20;100.00
11676;BME280;5894;42.768;23.404;2022-10-24T05:25:16;96388.13;;;10.21;100.00
11676;BME280;5894;42.768;23.404;2022-10-24T05:27:43;96376.84;;;10.16;100.00
11676;BME280;5894;42.768;23.404;2022-10-24T05:30:10;96389.16;;;10.25;100.00
11676;BME280;5894;42.768;23.404;2022-10-24T05:32:37;96349.78;;;10.05;100.00
11676;BME280;5894;42.768;23.404;2022-10-24T05:35:05;96392.56;;;10.26;100.00
11676;BME280;5894;42.768;23.404;2022-10-24T05:37:32;96389.66;;;10.27;100.00
11676;BME280;5894;42.768;23.404;2022-10-24T05:39:59;96387.25;;;10.31;100.00
11676;BME280;5894;42.768;23.404;2022-10-24T05:42:27;96414.13;;;10.33;100.00
11676;BME280;5894;42.768;23.404;2022-10-24T05:44:54;96391.97;;;10.34;100.00
11676;BME280;5894;42.768;23.404;2022-10-24T05:47:20;96363.09;;;10.19;100.00
11676;BME280;5894;42.768;23.404;2022-10-24T05:49:47;96392.13;;;10.43;100.00
11676;BME280;5894;42.768;23.404;2022-10-24T05:52:14;96384.75;;;10.45;100.00
11676;BME280;5894;42.768;23.404;2022-10-24T05:54:41;96392.38;;;10.46;100.00
11676;BME280;5894;42.768;23.404;2022-10-24T05:57:07;96395.28;;;10.45;100.00
11676;BME280;5894;42.768;23.404;2022-10-24T05:59:36;96400.22;;;10.51;100.00
11676;BME280;5894;42.768;23.404;2022-10-24T06:02:02;96402.59;;;10.53;100.00
11676;BME280;5894;42.768;23.404;2022-10-24T06:04:29;96407.84;;;10.53;100.00
11676;BME280;5894;42.768;23.404;2022-10-24T06:06:56;96400.22;;;10.51;100.00
11676;BME280;5894;42.768;23.404;2022-10-24T06:09:23;96409.94;;;10.56;100.00
11676;BME280;5894;42.768;23.404;2022-10-24T06:11:49;96404.09;;;10.59;100.00
11676;BME280;5894;42.768;23.404;2022-10-24T06:14:16;96401.97;;;10.61;100.00
11676;BME280;5894;42.768;23.404;2022-10-24T06:16:44;96391.75;;;10.54;100.00
11676;BME280;5894;42.768;23.404;2022-10-24T06:19:11;96396.91;;;10.64;100.00
11676;BME280;5894;42.768;23.404;2022-10-24T06:21:38;96403.41;;;10.72;100.00
11676;BME280;5894;42.768;23.404;2022-10-24T06:24:05;96404.72;;;10.75;100.00
11676;BME280;5894;42.768;23.404;2022-10-24T06:26:32;96401.06;;;10.71;100.00
11676;BME280;5894;42.768;23.404;2022-10-24T06:28:59;96413.66;;;10.79;100.00
11676;BME280;5894;42.768;23.404;2022-10-24T06:31:25;96409.72;;;10.76;100.00
11676;BME280;5894;42.768;23.404;2022-10-24T06:33:54;96411.72;;;10.84;100.00
11676;BME280;5894;42.768;23.404;2022-10-24T06:36:21;96426.38;;;10.95;100.00
11676;BME280;5894;42.768;23.404;2022-10-24T06:38:48;96420.59;;;10.93;100.00
11676;BME280;5894;42.768;23.404;2022-10-24T06:41:14;96426.25;;;11.06;100.00
11676;BME280;5894;42.768;23.404;2022-10-24T06:43:43;96422.31;;;11.03;100.00
11676;BME280;5894;42.768;23.404;2022-10-24T06:46:12;96428.84;;;11.11;100.00
11676;BME280;5894;42.768;23.404;2022-10-24T06:48:40;96398.97;;;10.91;100.00
11676;BME280;5894;42.768;23.404;2022-10-24T06:51:08;96372.78;;;10.76;100.00
11676;BME280;5894;42.768;23.404;2022-10-24T06:53:35;96434.00;;;11.21;100.00
11676;BME280;5894;42.768;23.404;2022-10-24T06:56:03;96427.94;;;11.20;100.00
11676;BME280;5894;42.768;23.404;2022-10-24T06:58:31;96439.72;;;11.28;100.00
11676;BME280;5894;42.768;23.404;2022-10-24T07:00:58;96434.66;;;11.31;100.00
11676;BME280;5894;42.768;23.404;2022-10-24T07:03:25;96431.44;;;11.34;100.00
11676;BME280;5894;42.768;23.404;2022-10-24T07:05:52;96433.56;;;11.32;100.00
11676;BME280;5894;42.768;23.404;2022-10-24T07:08:20;96408.81;;;11.28;100.00
11676;BME280;5894;42.768;23.404;2022-10-24T07:10:47;96420.53;;;11.41;100.00
11676;BME280;5894;42.768;23.404;2022-10-24T07:13:13;96425.97;;;11.50;100.00
11676;BME280;5894;42.768;23.404;2022-10-24T07:15:40;96422.94;;;11.56;100.00
11676;BME280;5894;42.768;23.404;2022-10-24T07:18:12;96430.81;;;11.61;100.00
11676;BME280;5894;42.768;23.404;2022-10-24T07:20:40;96396.38;;;11.48;100.00
11676;BME280;5894;42.768;23.404;2022-10-24T07:23:07;96421.22;;;11.65;100.00
11676;BME280;5894;42.768;23.404;2022-10-24T07:25:36;96427.22;;;11.71;100.00
11676;BME280;5894;42.768;23.404;2022-10-24T07:28:03;96435.34;;;11.74;100.00
11676;BME280;5894;42.768;23.404;2022-10-24T07:30:30;96424.47;;;11.81;100.00
11676;BME280;5894;42.768;23.404;2022-10-24T07:32:57;96433.66;;;11.84;100.00
11676;BME280;5894;42.768;23.404;2022-10-24T07:35:24;96338.31;;;11.29;100.00
11676;BME280;5894;42.768;23.404;2022-10-24T07:37:51;96434.88;;;11.91;100.00
11676;BME280;5894;42.768;23.404;2022-10-24T07:40:18;96428.94;;;11.99;100.00
11676;BME280;5894;42.768;23.404;2022-10-24T07:42:46;96437.09;;;12.03;100.00
11676;BME280;5894;42.768;23.404;2022-10-24T07:45:14;96429.06;;;12.08;100.00
11676;BME280;5894;42.768;23.404;2022-10-24T07:47:40;96440.75;;;12.21;100.00
11676;BME280;5894;42.768;23.404;2022-10-24T07:50:08;96408.47;;;12.05;100.00
11676;BME280;5894;42.768;23.404;2022-10-24T07:52:34;96424.78;;;12.26;100.00
11676;BME280;5894;42.768;23.404;2022-10-24T07:55:01;96426.28;;;12.32;100.00
11676;BME280;5894;42.768;23.404;2022-10-24T07:57:28;96424.34;;;12.37;100.00
11676;BME280;5894;42.768;23.404;2022-10-24T07:59:56;96420.16;;;12.50;100.00
11676;BME280;5894;42.768;23.404;2022-10-24T08:02:23;96421.31;;;12.58;100.00
11676;BME280;5894;42.768;23.404;2022-10-24T08:04:50;96419.09;;;12.65;100.00
11676;BME280;5894;42.768;23.404;2022-10-24T08:07:17;96419.28;;;12.68;100.00
11676;BME280;5894;42.768;23.404;2022-10-24T08:09:46;96405.97;;;12.73;100.00
11676;BME280;5894;42.768;23.404;2022-10-24T08:12:15;96410.69;;;12.76;100.00
11676;BME280;5894;42.768;23.404;2022-10-24T08:14:42;96407.22;;;12.90;100.00
11676;BME280;5894;42.768;23.404;2022-10-24T08:17:11;96383.09;;;12.77;100.00
11676;BME280;5894;42.768;23.404;2022-10-24T08:19:38;96415.47;;;13.02;100.00
11676;BME280;5894;42.768;23.404;2022-10-24T08:22:06;96410.53;;;13.09;100.00
11676;BME280;5894;42.768;23.404;2022-10-24T08:24:33;96409.09;;;13.16;100.00
11676;BME280;5894;42.768;23.404;2022-10-24T08:27:00;96406.84;;;13.23;100.00
11676;BME280;5894;42.768;23.404;2022-10-24T08:29:27;96411.91;;;13.34;100.00
11676;BME280;5894;42.768;23.404;2022-10-24T08:31:54;96405.13;;;13.41;100.00
11676;BME280;5894;42.768;23.404;2022-10-24T08:34:23;96399.59;;;13.51;100.00
11676;BME280;5894;42.768;23.404;2022-10-24T08:36:50;96400.88;;;13.54;100.00
11676;BME280;5894;42.768;23.404;2022-10-24T08:39:17;96391.41;;;13.62;100.00
11676;BME280;5894;42.768;23.404;2022-10-24T08:41:48;96364.06;;;13.52;100.00
11676;BME280;5894;42.768;23.404;2022-10-24T08:44:21;96392.22;;;13.84;100.00
11676;BME280;5894;42.768;23.404;2022-10-24T08:46:54;96381.03;;;13.87;100.00
11676;BME280;5894;42.768;23.404;2022-10-24T08:49:29;96381.38;;;13.94;100.00
11676;BME280;5894;42.768;23.404;2022-10-24T08:52:01;96370.03;;;14.03;100.00
11676;BME280;5894;42.768;23.404;2022-10-24T08:54:33;96353.66;;;14.01;100.00
11676;BME280;5894;42.768;23.404;2022-10-24T08:57:03;96375.31;;;14.25;100.00
11676;BME280;5894;42.768;23.404;2022-10-24T08:59:32;96375.66;;;14.32;100.00
11676;BME280;5894;42.768;23.404;2022-10-24T09:02:03;96371.50;;;14.40;100.00
11676;BME280;5894;42.768;23.404;2022-10-24T09:04:38;96367.81;;;14.49;100.00
11676;BME280;5894;42.768;23.404;2022-10-24T09:07:10;96367.06;;;14.57;100.00
11676;BME280;5894;42.768;23.404;2022-10-24T09:09:43;96351.91;;;14.58;100.00
11676;BME280;5894;42.768;23.404;2022-10-24T09:12:13;96363.53;;;14.71;100.00
11676;BME280;5894;42.768;23.404;2022-10-24T09:14:41;96364.44;;;14.75;100.00
11676;BME280;5894;42.768;23.404;2022-10-24T09:17:12;96334.44;;;14.65;100.00
11676;BME280;5894;42.768;23.404;2022-10-24T09:19:44;96348.88;;;14.90;100.00
11676;BME280;5894;42.768;23.404;2022-10-24T09:22:12;96356.09;;;15.07;100.00
11676;BME280;5894;42.768;23.404;2022-10-24T09:24:42;96350.34;;;15.14;100.00
11676;BME280;5894;42.768;23.404;2022-10-24T09:27:13;96340.19;;;15.24;100.00
11676;BME280;5894;42.768;23.404;2022-10-24T09:29:41;96351.75;;;15.37;100.00
11676;BME280;5894;42.768;23.404;2022-10-24T09:32:15;96348.16;;;15.50;100.00
11676;BME280;5894;42.768;23.404;2022-10-24T09:34:44;96342.44;;;15.57;100.00
11676;BME280;5894;42.768;23.404;2022-10-24T09:37:32;96341.00;;;15.59;100.00
11676;BME280;5894;42.768;23.404;2022-10-24T09:40:06;96343.50;;;15.64;100.00
11676;BME280;5894;42.768;23.404;2022-10-24T09:42:34;96338.97;;;15.73;100.00
11676;BME280;5894;42.768;23.404;2022-10-24T09:45:17;96333.94;;;15.81;100.00
11676;BME280;5894;42.768;23.404;2022-10-24T09:47:45;96331.59;;;15.88;100.00
11676;BME280;5894;42.768;23.404;2022-10-24T09:50:19;96327.81;;;15.97;100.00
11676;BME280;5894;42.768;23.404;2022-10-24T09:52:49;96327.91;;;16.09;100.00
11676;BME280;5894;42.768;23.404;2022-10-24T09:55:20;96330.53;;;16.27;100.00
11676;BME280;5894;42.768;23.404;2022-10-24T09:57:52;96329.09;;;16.38;97.03
11676;BME280;5894;42.768;23.404;2022-10-24T10:00:22;96339.84;;;16.50;96.13
11676;BME280;5894;42.768;23.404;2022-10-24T10:03:03;96320.41;;;16.58;97.92
11676;BME280;5894;42.768;23.404;2022-10-24T10:05:46;96318.50;;;16.67;99.05
11676;BME280;5894;42.768;23.404;2022-10-24T10:08:19;96320.16;;;16.80;99.35
11676;BME280;5894;42.768;23.404;2022-10-24T10:10:59;96332.00;;;16.92;97.33
11676;BME280;5894;42.768;23.404;2022-10-24T10:13:27;96308.91;;;16.96;97.38
11676;BME280;5894;42.768;23.404;2022-10-24T10:15:56;96273.69;;;16.69;97.58
11676;BME280;5894;42.768;23.404;2022-10-24T10:18:31;96309.06;;;16.99;96.42
11676;BME280;5894;42.768;23.404;2022-10-24T10:21:11;96308.53;;;17.06;96.33
11676;BME280;5894;42.768;23.404;2022-10-24T10:23:40;96304.13;;;17.10;95.26
11676;BME280;5894;42.768;23.404;2022-10-24T10:26:26;96305.38;;;17.33;94.85
11676;BME280;5894;42.768;23.404;2022-10-24T10:29:01;96301.53;;;17.43;95.25
11676;BME280;5894;42.768;23.404;2022-10-24T10:31:38;96257.78;;;17.23;92.19
11676;BME280;5894;42.768;23.404;2022-10-24T10:34:16;96292.34;;;17.73;90.01
11676;BME280;5894;42.768;23.404;2022-10-24T10:36:57;96278.13;;;17.81;87.85
11676;BME280;5894;42.768;23.404;2022-10-24T10:39:45;96280.56;;;17.86;87.97
11676;BME280;5894;42.768;23.404;2022-10-24T10:42:22;96282.16;;;18.00;86.54
11676;BME280;5894;42.768;23.404;2022-10-24T10:45:01;96277.06;;;18.07;85.93
11676;BME280;5894;42.768;23.404;2022-10-24T10:47:35;96280.44;;;18.16;85.24
11676;BME280;5894;42.768;23.404;2022-10-24T10:50:26;96269.31;;;18.26;84.65
11676;BME280;5894;42.768;23.404;2022-10-24T10:53:02;96265.53;;;18.27;84.83
11676;BME280;5894;42.768;23.404;2022-10-24T10:55:34;96219.91;;;18.08;85.51
11676;BME280;5894;42.768;23.404;2022-10-24T10:58:17;96264.19;;;18.33;85.86
11676;BME280;5894;42.768;23.404;2022-10-24T11:00:54;96250.59;;;18.38;86.04
11676;BME280;5894;42.768;23.404;2022-10-24T11:03:31;96248.06;;;18.42;86.24
11676;BME280;5894;42.768;23.404;2022-10-24T11:06:21;96246.75;;;18.48;83.00
11676;BME280;5894;42.768;23.404;2022-10-24T11:09:21;96254.75;;;18.60;81.92
11676;BME280;5894;42.768;23.404;2022-10-24T11:11:53;96245.63;;;18.73;81.27
11676;BME280;5894;42.768;23.404;2022-10-24T11:14:27;96237.03;;;18.80;82.12
11676;BME280;5894;42.768;23.404;2022-10-24T11:16:59;96237.13;;;18.83;83.14
11676;BME280;5894;42.768;23.404;2022-10-24T11:19:31;96226.56;;;18.87;83.16
11676;BME280;5894;42.768;23.404;2022-10-24T11:22:03;96237.22;;;18.99;81.06
11676;BME280;5894;42.768;23.404;2022-10-24T11:24:38;96209.16;;;18.93;79.76
11676;BME280;5894;42.768;23.404;2022-10-24T11:27:09;96214.03;;;19.03;79.34
11676;BME280;5894;42.768;23.404;2022-10-24T11:29:42;96225.56;;;19.19;80.47
11676;BME280;5894;42.768;23.404;2022-10-24T11:32:15;96218.97;;;19.29;77.68
11676;BME280;5894;42.768;23.404;2022-10-24T11:34:47;96203.75;;;19.33;78.89
11676;BME280;5894;42.768;23.404;2022-10-24T11:37:18;96168.66;;;19.19;80.32
11676;BME280;5894;42.768;23.404;2022-10-24T11:39:53;96203.91;;;19.52;79.88
11676;BME280;5894;42.768;23.404;2022-10-24T11:42:28;96198.06;;;19.62;77.39
11676;BME280;5894;42.768;23.404;2022-10-24T11:44:59;96202.22;;;19.75;78.09
11676;BME280;5894;42.768;23.404;2022-10-24T11:47:38;96145.44;;;19.51;77.11
11676;BME280;5894;42.768;23.404;2022-10-24T11:50:13;96182.47;;;19.80;77.53
11676;BME280;5894;42.768;23.404;2022-10-24T11:52:47;96188.09;;;19.91;77.15
11676;BME280;5894;42.768;23.404;2022-10-24T11:55:18;96143.97;;;19.69;76.03
11676;BME280;5894;42.768;23.404;2022-10-24T11:57:49;96137.22;;;19.75;75.60
11676;BME280;5894;42.768;23.404;2022-10-24T12:00:19;96181.75;;;20.14;72.03
11676;BME280;5894;42.768;23.404;2022-10-24T12:03:07;96181.16;;;20.21;71.07
11676;BME280;5894;42.768;23.404;2022-10-24T12:08:58;96177.38;;;20.22;74.87
11676;BME280;5894;42.768;23.404;2022-10-24T12:11:51;96170.09;;;20.23;72.58
11676;BME280;5894;42.768;23.404;2022-10-24T12:14:45;96164.03;;;20.26;72.93
11676;BME280;5894;42.768;23.404;2022-10-24T12:17:28;96158.34;;;20.27;72.71
11676;BME280;5894;42.768;23.404;2022-10-24T12:19:59;96156.09;;;20.29;72.81
11676;BME280;5894;42.768;23.404;2022-10-24T12:22:34;96143.03;;;20.28;72.06
11676;BME280;5894;42.768;23.404;2022-10-24T12:25:04;96155.31;;;20.44;70.12
11676;BME280;5894;42.768;23.404;2022-10-24T12:27:36;96154.25;;;20.49;66.59
11676;BME280;5894;42.768;23.404;2022-10-24T12:30:14;96148.34;;;20.59;66.09
11676;BME280;5894;42.768;23.404;2022-10-24T12:32:44;96143.91;;;20.67;68.88
11676;BME280;5894;42.768;23.404;2022-10-24T12:35:31;96147.88;;;20.73;67.22
11676;BME280;5894;42.768;23.404;2022-10-24T12:38:00;96145.75;;;20.82;65.99
11676;BME280;5894;42.768;23.404;2022-10-24T12:40:51;96133.25;;;20.89;67.49
11676;BME280;5894;42.768;23.404;2022-10-24T12:43:30;96141.81;;;20.95;67.71
11676;BME280;5894;42.768;23.404;2022-10-24T12:45:58;96129.69;;;20.82;68.43
11676;BME280;5894;42.768;23.404;2022-10-24T12:48:33;96136.84;;;20.97;67.17
11676;BME280;5894;42.768;23.404;2022-10-24T12:51:04;96134.59;;;20.99;67.27
11676;BME280;5894;42.768;23.404;2022-10-24T12:53:37;96138.13;;;21.03;66.04
11676;BME280;5894;42.768;23.404;2022-10-24T12:56:14;96129.44;;;21.10;63.84
11676;BME280;5894;42.768;23.404;2022-10-24T12:58:44;96132.97;;;21.14;65.00
11676;BME280;5894;42.768;23.404;2022-10-24T13:01:24;96136.09;;;21.16;65.50
11676;BME280;5894;42.768;23.404;2022-10-24T13:07:13;96124.81;;;21.26;65.86
11676;BME280;5894;42.768;23.404;2022-10-24T13:09:52;96120.56;;;21.25;64.66
11676;BME280;5894;42.768;23.404;2022-10-24T13:12:37;96091.97;;;21.13;65.25
11676;BME280;5894;42.768;23.404;2022-10-24T13:15:20;96093.59;;;21.18;64.88
11676;BME280;5894;42.768;23.404;2022-10-24T13:17:59;96120.03;;;21.39;66.17
11676;BME280;5894;42.768;23.404;2022-10-24T13:20:35;96119.75;;;21.44;66.32
11676;BME280;5894;42.768;23.404;2022-10-24T13:23:05;96115.16;;;21.44;66.28